createdAt,value
2023-09-06T00:01:35.644Z,101056.69
2023-09-06T00:04:03.607Z,101056.41
2023-09-06T00:06:33.262Z,101058.28
2023-09-06T00:09:00.951Z,101053.84
2023-09-06T00:11:28.954Z,100994.50
2023-09-06T00:13:56.721Z,101060.19
2023-09-06T00:16:24.430Z,101048.59
2023-09-06T00:18:52.170Z,101047.84
2023-09-06T00:21:20.636Z,101008.28
2023-09-06T00:23:50.721Z,101048.84
2023-09-06T00:26:18.493Z,101054.28
2023-09-06T00:28:46.994Z,100985.28
2023-09-06T00:31:15.279Z,101047.31
2023-09-06T00:33:43.709Z,101044.19
2023-09-06T00:36:11.704Z,101042.47
2023-09-06T00:38:39.942Z,101047.31
2023-09-06T00:41:09.078Z,101042.72
2023-09-06T00:43:36.799Z,101048.44
2023-09-06T00:46:08.585Z,101054.47
2023-09-06T00:48:37.780Z,101046.31
2023-09-06T00:51:08.210Z,101047.97
2023-09-06T00:53:36.275Z,101055.94
2023-09-06T00:56:05.798Z,101058.66
2023-09-06T00:58:34.945Z,101040.31
2023-09-06T01:01:05.724Z,101053.22
2023-09-06T01:03:33.768Z,101058.44
2023-09-06T01:06:06.662Z,101056.56
2023-09-06T01:08:40.175Z,101061.88
2023-09-06T01:11:22.030Z,101061.56
2023-09-06T01:13:52.976Z,101065.34
2023-09-06T01:16:25.909Z,101062.06
2023-09-06T01:18:53.679Z,101067.19
2023-09-06T01:21:25.281Z,101068.56
2023-09-06T01:23:55.681Z,101051.38
2023-09-06T01:26:24.334Z,101066.63
2023-09-06T01:28:52.486Z,101068.47
2023-09-06T01:31:20.875Z,101073.34
2023-09-06T01:33:48.706Z,101076.19
2023-09-06T01:36:16.568Z,101067.16
2023-09-06T01:38:44.244Z,100989.78
2023-09-06T01:41:14.080Z,101071.88
2023-09-06T01:43:41.836Z,101067.69
2023-09-06T01:46:09.677Z,101069.41
2023-09-06T01:48:40.586Z,101066.75
2023-09-06T01:51:10.365Z,101071.25
2023-09-06T01:53:38.081Z,101053.72
2023-09-06T01:56:08.286Z,101074.34
2023-09-06T01:58:38.532Z,101076.59
2023-09-06T02:01:06.837Z,101072.00
2023-09-06T02:03:35.433Z,101071.31
2023-09-06T02:06:04.119Z,100998.81
2023-09-06T02:08:31.911Z,101070.72
2023-09-06T02:11:00.442Z,101071.44
2023-09-06T02:13:28.216Z,101077.38
2023-09-06T02:15:57.302Z,101071.81
2023-09-06T02:18:28.154Z,101078.50
2023-09-06T02:20:57.765Z,101075.19
2023-09-06T02:23:25.636Z,101080.84
2023-09-06T02:25:53.302Z,101079.09
2023-09-06T02:28:21.024Z,101086.41
2023-09-06T02:30:48.933Z,101090.97
2023-09-06T02:33:18.150Z,101085.53
2023-09-06T02:35:46.459Z,101076.66
2023-09-06T02:38:15.182Z,101085.78
2023-09-06T02:40:42.983Z,101091.50
2023-09-06T02:43:12.143Z,101073.97
2023-09-06T02:45:40.396Z,101090.47
2023-09-06T02:48:13.438Z,101091.38
2023-09-06T02:50:42.665Z,101085.31
2023-09-06T02:53:20.811Z,101088.28
2023-09-06T02:55:52.795Z,101090.63
2023-09-06T02:58:24.533Z,101076.44
2023-09-06T03:00:56.788Z,101094.72
2023-09-06T03:03:27.960Z,101050.38
2023-09-06T03:05:59.598Z,101105.81
2023-09-06T03:08:29.580Z,101102.13
2023-09-06T03:10:58.344Z,101112.22
2023-09-06T03:13:26.248Z,101001.31
2023-09-06T03:15:54.220Z,101077.41
2023-09-06T03:18:23.316Z,101102.97
2023-09-06T03:20:52.590Z,101100.88
2023-09-06T03:23:22.734Z,101105.81
2023-09-06T03:25:53.034Z,101085.34
2023-09-06T03:28:20.895Z,101105.09
2023-09-06T03:30:48.879Z,101103.84
2023-09-06T03:33:16.775Z,101106.97
2023-09-06T03:35:46.772Z,101100.91
2023-09-06T03:38:16.948Z,101107.28
2023-09-06T03:40:46.557Z,101113.09
2023-09-06T03:43:17.123Z,101113.50
2023-09-06T03:45:46.309Z,101108.94
2023-09-06T03:48:14.634Z,101115.44
2023-09-06T03:50:42.732Z,101121.84
2023-09-06T03:53:10.727Z,101124.94
2023-09-06T03:55:39.325Z,101117.41
2023-09-06T03:58:08.637Z,101127.06
2023-09-06T04:00:40.571Z,101125.69
2023-09-06T04:03:09.943Z,101119.66
2023-09-06T04:05:37.930Z,101129.78
2023-09-06T04:08:07.990Z,101123.09
2023-09-06T04:10:37.617Z,101124.38
2023-09-06T04:13:06.187Z,101131.25
2023-09-06T04:15:36.668Z,101134.97
2023-09-06T04:18:05.931Z,101135.22
2023-09-06T04:20:36.445Z,101128.94
2023-09-06T04:23:05.542Z,101130.78
2023-09-06T04:25:34.478Z,101129.28
2023-09-06T04:28:08.273Z,101134.59
2023-09-06T04:30:38.872Z,101132.81
2023-09-06T04:33:09.118Z,101136.84
2023-09-06T04:35:40.051Z,101139.16
2023-09-06T04:38:10.848Z,101134.47
2023-09-06T04:40:39.149Z,101136.69
2023-09-06T04:43:06.926Z,101140.88
2023-09-06T04:45:34.778Z,101143.25
2023-09-06T04:48:04.305Z,101137.41
2023-09-06T04:50:32.080Z,101153.34
2023-09-06T04:53:00.187Z,101152.84
2023-09-06T04:55:27.852Z,101152.59
2023-09-06T04:57:56.060Z,101143.78
2023-09-06T05:00:25.796Z,101159.09
2023-09-06T05:02:54.114Z,101146.25
2023-09-06T05:05:23.360Z,101149.59
2023-09-06T05:07:51.065Z,101134.41
2023-09-06T05:10:19.310Z,101147.72
2023-09-06T05:12:47.646Z,101157.31
2023-09-06T05:15:15.655Z,101153.97
2023-09-06T05:17:43.496Z,101153.59
2023-09-06T05:20:30.435Z,101155.06
2023-09-06T05:22:59.881Z,101163.09
2023-09-06T05:25:27.916Z,101120.59
2023-09-06T05:27:58.313Z,101155.56
2023-09-06T05:30:26.272Z,101160.38
2023-09-06T05:32:55.202Z,101158.97
2023-09-06T05:35:23.007Z,101160.44
2023-09-06T05:37:52.165Z,101167.25
2023-09-06T05:40:24.214Z,101165.97
2023-09-06T05:42:52.780Z,101180.06
2023-09-06T05:45:21.742Z,101180.16
2023-09-06T05:47:49.551Z,101173.16
2023-09-06T05:50:18.024Z,101180.06
2023-09-06T05:52:46.073Z,101178.69
2023-09-06T05:55:15.803Z,101181.31
2023-09-06T05:57:44.579Z,101184.13
2023-09-06T06:00:16.893Z,101187.97
2023-09-06T06:02:45.750Z,101188.88
2023-09-06T06:05:15.996Z,101184.94
2023-09-06T06:07:43.878Z,101190.19
2023-09-06T06:10:12.034Z,100975.72
2023-09-06T06:12:42.283Z,101189.88
2023-09-06T06:15:13.240Z,101202.84
2023-09-06T06:17:41.675Z,101200.44
2023-09-06T06:20:12.196Z,101205.94
2023-09-06T06:22:41.117Z,101143.72
2023-09-06T06:25:11.562Z,101190.31
2023-09-06T06:27:41.726Z,101209.69
2023-09-06T06:30:12.457Z,101198.31
2023-09-06T06:32:40.602Z,101205.16
2023-09-06T06:35:10.185Z,101161.78
2023-09-06T06:37:37.991Z,101196.69
2023-09-06T06:40:07.340Z,101095.19
2023-09-06T06:42:35.420Z,101107.47
2023-09-06T06:45:05.826Z,101147.00
2023-09-06T06:47:33.770Z,101204.84
2023-09-06T06:50:04.668Z,101150.31
2023-09-06T06:52:34.487Z,101207.78
2023-09-06T06:55:02.288Z,101154.97
2023-09-06T06:57:30.094Z,101134.72
2023-09-06T06:59:57.839Z,101215.09
2023-09-06T07:02:26.923Z,101217.97
2023-09-06T07:04:58.141Z,101157.53
2023-09-06T07:07:27.345Z,101084.41
2023-09-06T07:09:55.014Z,101211.22
2023-09-06T07:12:23.005Z,101220.13
2023-09-06T07:14:51.968Z,101214.84
2023-09-06T07:17:19.806Z,101216.94
2023-09-06T07:19:49.150Z,101209.91
2023-09-06T07:22:17.075Z,101213.22
2023-09-06T07:24:44.777Z,101138.66
2023-09-06T07:27:12.601Z,101215.50
2023-09-06T07:29:40.528Z,101218.94
2023-09-06T07:32:08.612Z,101218.72
2023-09-06T07:34:36.398Z,101223.84
2023-09-06T07:37:05.747Z,101227.50
2023-09-06T07:39:33.522Z,101187.91
2023-09-06T07:42:01.356Z,101226.00
2023-09-06T07:44:31.313Z,101223.03
2023-09-06T07:46:59.170Z,101214.56
2023-09-06T07:49:30.130Z,101233.75
2023-09-06T07:51:58.275Z,101153.25
2023-09-06T07:54:27.403Z,101232.75
2023-09-06T07:56:55.076Z,101234.78
2023-09-06T07:59:24.179Z,101140.16
2023-09-06T08:01:52.319Z,101231.47
2023-09-06T08:04:20.681Z,101240.44
2023-09-06T08:06:48.717Z,101235.72
2023-09-06T08:09:16.593Z,101238.19
2023-09-06T08:11:45.766Z,101238.25
2023-09-06T08:14:13.531Z,101240.13
2023-09-06T08:16:41.419Z,101241.03
2023-09-06T08:19:09.204Z,101235.19
2023-09-06T08:21:37.150Z,101155.09
2023-09-06T08:24:05.551Z,101239.50
2023-09-06T08:26:33.542Z,101236.41
2023-09-06T08:29:02.727Z,101173.34
2023-09-06T08:31:30.906Z,101239.16
2023-09-06T08:33:58.958Z,101239.88
2023-09-06T08:36:27.922Z,101235.66
2023-09-06T08:38:55.722Z,101232.69
2023-09-06T08:41:23.645Z,101237.44
2023-09-06T08:43:54.672Z,101234.06
2023-09-06T08:46:30.079Z,101224.53
2023-09-06T08:48:58.416Z,101236.31
2023-09-06T08:51:26.411Z,101237.19
2023-09-06T08:53:54.569Z,101208.13
2023-09-06T08:56:22.799Z,101232.97
2023-09-06T08:58:50.497Z,101242.00
2023-09-06T09:01:18.377Z,101254.84
2023-09-06T09:03:47.654Z,101237.06
2023-09-06T09:06:15.634Z,101238.03
2023-09-06T09:08:43.337Z,101237.56
2023-09-06T09:11:13.067Z,101237.56
2023-09-06T09:13:41.172Z,101239.28
2023-09-06T09:16:10.759Z,101239.53
2023-09-06T09:18:39.661Z,101155.97
2023-09-06T09:21:10.579Z,101241.81
2023-09-06T09:23:45.460Z,101235.84
2023-09-06T09:26:13.356Z,101260.25
2023-09-06T09:28:43.492Z,101240.28
2023-09-06T09:31:14.743Z,101169.84
2023-09-06T09:33:44.615Z,101242.28
2023-09-06T09:36:15.800Z,101223.03
2023-09-06T09:38:44.053Z,101248.91
2023-09-06T09:41:12.188Z,101238.25
2023-09-06T09:43:40.487Z,101235.66
2023-09-06T09:46:09.524Z,101160.38
2023-09-06T09:48:38.141Z,101227.13
2023-09-06T09:51:12.045Z,101234.78
2023-09-06T09:53:42.893Z,101238.44
2023-09-06T09:56:10.882Z,101233.09
2023-09-06T09:58:41.155Z,101231.59
2023-09-06T10:01:12.104Z,101234.75
2023-09-06T10:03:41.996Z,101233.44
2023-09-06T10:06:12.382Z,101226.84
2023-09-06T10:08:44.771Z,101172.25
2023-09-06T10:11:15.418Z,101230.69
2023-09-06T10:13:43.604Z,101225.50
2023-09-06T10:16:12.382Z,101221.72
2023-09-06T10:18:40.352Z,101227.72
2023-09-06T10:21:09.236Z,101191.94
2023-09-06T10:23:44.119Z,101219.44
2023-09-06T10:26:12.007Z,101213.44
2023-09-06T10:28:39.922Z,101211.59
2023-09-06T10:31:10.644Z,101211.91
2023-09-06T10:33:56.241Z,101185.38
2023-09-06T10:36:28.449Z,101216.50
2023-09-06T10:39:20.043Z,101210.38
2023-09-06T10:42:18.430Z,101216.25
2023-09-06T10:45:14.128Z,101219.91
2023-09-06T10:47:42.546Z,101215.66
2023-09-06T10:50:21.106Z,101162.94
2023-09-06T10:52:52.610Z,101124.44
2023-09-06T10:55:24.294Z,101205.25
2023-09-06T10:57:55.706Z,101211.63
2023-09-06T11:00:27.921Z,101200.03
2023-09-06T11:03:15.859Z,101211.28
2023-09-06T11:05:45.139Z,101159.22
2023-09-06T11:08:25.598Z,101206.09
2023-09-06T11:11:00.518Z,101119.28
2023-09-06T11:13:31.938Z,101198.28
2023-09-06T11:15:59.734Z,101205.97
2023-09-06T11:18:29.106Z,101198.53
2023-09-06T11:20:57.570Z,101195.09
2023-09-06T11:23:25.363Z,101132.09
2023-09-06T11:26:01.947Z,101146.53
2023-09-06T11:28:34.659Z,101180.13
2023-09-06T11:31:06.178Z,101187.28
2023-09-06T11:33:34.538Z,101054.75
2023-09-06T11:36:05.283Z,101120.94
2023-09-06T11:38:36.675Z,101065.25
2023-09-06T11:41:08.375Z,101065.88
2023-09-06T11:43:40.772Z,101117.16
2023-09-06T11:46:10.333Z,101047.47
2023-09-06T11:48:39.930Z,101173.97
2023-09-06T11:51:11.426Z,101134.03
2023-09-06T11:53:44.798Z,101157.88
2023-09-06T11:56:15.901Z,100983.25
2023-09-06T11:58:48.212Z,100997.88
2023-09-06T12:01:21.079Z,100971.03
2023-09-06T12:03:49.680Z,101090.53
2023-09-06T12:06:18.447Z,101003.09
2023-09-06T12:08:46.443Z,101002.06
2023-09-06T12:11:22.352Z,101180.03
2023-09-06T12:13:50.372Z,101111.22
2023-09-06T12:16:18.316Z,101089.72
2023-09-06T12:18:47.345Z,100998.81
2023-09-06T12:21:16.607Z,101154.56
2023-09-06T12:23:45.104Z,100891.09
2023-09-06T12:26:13.410Z,100976.66
2023-09-06T12:28:42.577Z,100958.59
2023-09-06T12:31:17.509Z,101091.56
2023-09-06T12:33:48.850Z,101086.31
2023-09-06T12:36:19.451Z,101151.22
2023-09-06T12:38:48.872Z,101023.22
2023-09-06T12:41:17.016Z,101122.22
2023-09-06T12:43:47.424Z,101133.94
2023-09-06T12:46:15.383Z,101013.63
2023-09-06T12:48:44.830Z,101053.28
2023-09-06T12:51:13.173Z,101137.19
2023-09-06T12:53:50.431Z,101027.88
2023-09-06T12:56:20.037Z,101064.75
2023-09-06T12:58:49.364Z,101133.53
2023-09-06T13:01:17.205Z,101135.78
2023-09-06T13:03:46.086Z,101133.38
2023-09-06T13:06:13.910Z,101120.22
2023-09-06T13:08:43.008Z,101121.50
2023-09-06T13:11:13.595Z,101126.22
2023-09-06T13:13:41.587Z,101069.06
2023-09-06T13:16:10.768Z,101119.22
2023-09-06T13:18:39.752Z,101015.38
2023-09-06T13:21:07.755Z,101114.47
2023-09-06T13:23:35.613Z,101115.47
2023-09-06T13:26:03.429Z,101108.34
2023-09-06T13:28:31.489Z,101111.69
2023-09-06T13:30:59.422Z,101113.13
2023-09-06T13:33:29.745Z,101102.25
2023-09-06T13:35:57.858Z,101090.94
2023-09-06T13:38:25.569Z,101099.59
2023-09-06T13:40:53.419Z,101100.53
2023-09-06T13:43:21.250Z,101033.41
2023-09-06T13:45:50.188Z,101088.41
2023-09-06T13:48:18.213Z,101096.03
2023-09-06T13:50:47.492Z,101089.69
2023-09-06T13:53:15.251Z,100931.03
2023-09-06T13:55:42.945Z,101085.78
2023-09-06T13:58:11.749Z,101077.25
2023-09-06T14:00:39.566Z,101081.97
2023-09-06T14:03:07.831Z,101081.88
2023-09-06T14:05:36.188Z,101080.78
2023-09-06T14:08:05.987Z,101076.38
2023-09-06T14:10:33.829Z,101078.03
2023-09-06T14:13:02.749Z,101047.16
2023-09-06T14:15:30.465Z,101074.25
2023-09-06T14:17:59.215Z,100984.47
2023-09-06T14:20:27.157Z,101079.00
2023-09-06T14:22:54.911Z,101069.31
2023-09-06T14:25:24.027Z,101069.41
2023-09-06T14:27:51.799Z,101033.63
2023-09-06T14:30:20.267Z,101062.56
2023-09-06T14:32:48.070Z,101072.25
2023-09-06T14:35:16.040Z,101043.97
2023-09-06T14:37:43.786Z,101062.97
2023-09-06T14:40:12.837Z,101069.69
2023-09-06T14:42:43.692Z,101066.69
2023-09-06T14:45:12.980Z,101004.22
2023-09-06T14:47:41.446Z,101054.84
2023-09-06T14:50:09.827Z,101045.41
2023-09-06T14:52:37.678Z,101045.94
2023-09-06T14:55:06.470Z,101050.25
2023-09-06T14:57:34.389Z,100994.50
2023-09-06T15:00:05.464Z,101038.88
2023-09-06T15:02:34.943Z,101042.25
2023-09-06T15:05:02.897Z,101012.41
2023-09-06T15:07:31.266Z,101034.56
2023-09-06T15:09:59.131Z,101040.59
2023-09-06T15:12:27.074Z,101052.25
2023-09-06T15:14:55.216Z,101022.13
2023-09-06T15:17:25.142Z,101047.09
2023-09-06T15:19:52.987Z,101050.84
2023-09-06T15:22:36.706Z,100989.28
2023-09-06T15:25:07.990Z,101047.97
2023-09-06T15:27:35.971Z,101055.69
2023-09-06T15:30:06.763Z,101046.22
2023-09-06T15:32:36.342Z,100876.31
2023-09-06T15:35:06.731Z,101031.81
2023-09-06T15:37:34.467Z,101035.78
2023-09-06T15:40:02.434Z,101041.03
2023-09-06T15:42:30.268Z,100980.31
2023-09-06T15:44:57.965Z,101037.34
2023-09-06T15:47:25.972Z,101044.47
2023-09-06T15:49:55.210Z,101037.66
2023-09-06T15:52:22.915Z,101041.56
2023-09-06T15:54:50.684Z,101038.63
2023-09-06T15:57:18.396Z,101034.88
2023-09-06T15:59:46.108Z,101037.56
2023-09-06T16:02:14.076Z,101042.16
2023-09-06T16:04:42.054Z,101046.34
2023-09-06T16:07:11.341Z,101047.22
2023-09-06T16:09:38.705Z,101027.78
2023-09-06T16:12:07.522Z,101027.47
2023-09-06T16:14:35.273Z,101017.47
2023-09-06T16:17:04.866Z,101018.63
2023-09-06T16:19:32.651Z,101019.69
2023-09-06T16:22:00.408Z,101025.81
2023-09-06T16:24:30.867Z,101017.13
2023-09-06T16:26:58.733Z,101026.03
2023-09-06T16:29:26.579Z,101029.53
2023-09-06T16:31:54.719Z,101029.66
2023-09-06T16:34:22.416Z,101036.78
2023-09-06T16:36:50.218Z,101049.03
2023-09-06T16:39:18.163Z,100976.56
2023-09-06T16:41:47.226Z,101035.47
2023-09-06T16:44:14.975Z,101034.47
2023-09-06T16:46:42.843Z,101023.56
2023-09-06T16:49:10.749Z,101027.09
2023-09-06T16:51:39.216Z,100980.13
2023-09-06T16:54:08.132Z,101030.19
2023-09-06T16:56:35.934Z,101027.66
2023-09-06T16:59:06.862Z,101026.19
2023-09-06T17:01:35.020Z,101003.78
2023-09-06T17:04:02.941Z,101027.06
2023-09-06T17:06:31.507Z,101020.97
2023-09-06T17:08:59.525Z,100974.28
2023-09-06T17:11:27.634Z,101024.88
2023-09-06T17:13:55.335Z,101024.25
2023-09-06T17:16:24.863Z,101027.50
2023-09-06T17:18:52.756Z,101009.16
2023-09-06T17:21:20.421Z,101007.06
2023-09-06T17:24:02.463Z,100889.69
2023-09-06T17:26:32.406Z,100971.59
2023-09-06T17:29:01.393Z,101015.53
2023-09-06T17:31:31.298Z,101007.00
2023-09-06T17:33:59.310Z,100940.41
2023-09-06T17:36:27.021Z,101004.41
2023-09-06T17:38:55.257Z,101023.91
2023-09-06T17:41:24.114Z,100883.50
2023-09-06T17:43:52.045Z,101009.16
2023-09-06T17:46:25.300Z,101005.53
2023-09-06T17:48:56.151Z,100995.03
2023-09-06T17:51:24.308Z,100998.84
2023-09-06T17:53:52.133Z,100999.25
2023-09-06T17:56:24.867Z,101000.50
2023-09-06T17:58:54.458Z,101004.66
2023-09-06T18:01:22.979Z,101012.00
2023-09-06T18:03:52.532Z,101008.06
2023-09-06T18:06:26.035Z,101009.66
2023-09-06T18:08:58.023Z,100998.50
2023-09-06T18:11:26.696Z,101014.94
2023-09-06T18:13:54.676Z,101018.63
2023-09-06T18:16:22.467Z,100983.09
2023-09-06T18:18:50.485Z,101008.25
2023-09-06T18:21:18.862Z,101013.25
2023-09-06T18:23:49.369Z,101021.91
2023-09-06T18:26:17.354Z,101021.06
2023-09-06T18:28:45.117Z,101016.53
2023-09-06T18:31:15.726Z,100984.38
2023-09-06T18:33:43.540Z,101032.19
2023-09-06T18:36:11.474Z,100961.88
2023-09-06T18:38:39.341Z,101024.28
2023-09-06T18:41:10.634Z,101035.13
2023-09-06T18:43:40.118Z,101032.19
2023-09-06T18:46:08.316Z,101021.03
2023-09-06T18:48:38.557Z,101041.34
2023-09-06T18:51:08.710Z,100865.41
2023-09-06T18:53:37.237Z,101039.50
2023-09-06T18:56:06.630Z,101038.81
2023-09-06T18:58:37.341Z,101040.72
2023-09-06T19:01:12.245Z,101036.91
2023-09-06T19:03:40.278Z,101045.00
2023-09-06T19:06:07.984Z,101041.19
2023-09-06T19:08:35.989Z,101067.38
2023-09-06T19:11:05.437Z,101010.81
2023-09-06T19:13:33.326Z,101054.91
2023-09-06T19:16:02.505Z,101024.25
2023-09-06T19:18:30.925Z,101064.94
2023-09-06T19:20:58.877Z,101011.56
2023-09-06T19:23:27.572Z,101022.63
2023-09-06T19:25:56.551Z,101072.44
2023-09-06T19:28:25.012Z,101067.53
2023-09-06T19:30:58.301Z,101069.91
2023-09-06T19:33:28.292Z,101037.94
2023-09-06T19:35:56.467Z,101072.25
2023-09-06T19:38:24.430Z,101072.38
2023-09-06T19:40:54.687Z,100999.91
2023-09-06T19:43:23.571Z,101076.91
2023-09-06T19:45:54.924Z,100990.16
2023-09-06T19:48:23.640Z,101068.06
2023-09-06T19:50:53.139Z,101076.81
2023-09-06T19:53:21.209Z,101059.34
2023-09-06T19:55:49.690Z,101085.28
2023-09-06T19:58:17.587Z,100962.94
2023-09-06T20:00:45.342Z,101077.03
2023-09-06T20:03:14.005Z,100978.50
2023-09-06T20:05:42.128Z,101050.63
2023-09-06T20:08:11.340Z,101070.69
2023-09-06T20:10:45.438Z,101080.47
2023-09-06T20:13:13.139Z,101077.88
2023-09-06T20:15:41.035Z,101079.97
2023-09-06T20:18:09.067Z,101092.03
2023-09-06T20:20:37.819Z,101055.78
2023-09-06T20:23:06.286Z,101081.00
2023-09-06T20:25:35.495Z,101052.22
2023-09-06T20:28:03.340Z,101029.13
2023-09-06T20:30:31.294Z,101095.94
2023-09-06T20:32:59.090Z,101037.91
2023-09-06T20:35:26.869Z,101097.88
2023-09-06T20:37:54.736Z,101091.16
2023-09-06T20:40:22.658Z,101100.06
2023-09-06T20:42:51.895Z,100969.94
2023-09-06T20:45:20.935Z,101092.75
2023-09-06T20:47:48.851Z,101102.31
2023-09-06T20:50:19.593Z,101102.31
2023-09-06T20:52:47.646Z,101096.00
2023-09-06T20:55:15.574Z,101079.78
2023-09-06T20:57:43.525Z,101113.44
2023-09-06T21:00:13.785Z,101104.66
2023-09-06T21:02:41.675Z,100928.56
2023-09-06T21:05:09.888Z,101104.91
2023-09-06T21:07:37.776Z,101103.31
2023-09-06T21:10:06.327Z,101091.69
2023-09-06T21:12:36.349Z,100967.00
2023-09-06T21:15:05.494Z,101119.19
2023-09-06T21:17:35.637Z,101118.13
2023-09-06T21:20:04.408Z,101071.38
2023-09-06T21:22:32.220Z,101088.47
2023-09-06T21:25:00.050Z,101148.03
2023-09-06T21:27:27.805Z,101124.28
2023-09-06T21:29:55.549Z,101121.72
2023-09-06T21:32:23.292Z,101117.63
2023-09-06T21:34:53.100Z,101001.50
2023-09-06T21:37:20.951Z,101123.38
2023-09-06T21:39:49.022Z,101082.22
2023-09-06T21:42:16.895Z,101121.81
2023-09-06T21:44:44.602Z,101086.56
2023-09-06T21:47:12.559Z,101119.59
2023-09-06T21:49:40.390Z,101072.28
2023-09-06T21:52:09.774Z,101124.53
2023-09-06T21:54:37.751Z,101071.47
2023-09-06T21:57:06.255Z,101136.34
2023-09-06T21:59:33.969Z,101132.06
2023-09-06T22:02:01.807Z,101122.00
2023-09-06T22:04:29.654Z,101142.38
2023-09-06T22:06:57.492Z,101087.56
2023-09-06T22:09:26.684Z,101146.16
2023-09-06T22:11:54.405Z,101148.75
2023-09-06T22:14:22.234Z,101036.75
2023-09-06T22:16:50.130Z,101170.31
2023-09-06T22:19:18.127Z,101080.13
2023-09-06T22:21:45.880Z,101145.03
2023-09-06T22:24:13.835Z,101138.72
2023-09-06T22:26:43.511Z,101138.13
2023-09-06T22:29:11.330Z,101181.53
2023-09-06T22:31:42.093Z,101137.28
2023-09-06T22:34:11.231Z,101148.47
2023-09-06T22:36:39.066Z,101137.97
2023-09-06T22:39:07.308Z,101173.75
2023-09-06T22:41:35.216Z,101116.38
2023-09-06T22:44:04.565Z,101096.88
2023-09-06T22:46:32.855Z,100904.31
2023-09-06T22:49:01.967Z,101135.66
2023-09-06T22:51:30.036Z,101136.09
2023-09-06T22:53:57.953Z,101129.50
2023-09-06T22:56:25.655Z,101137.94
2023-09-06T22:58:53.322Z,101137.09
2023-09-06T23:01:22.566Z,101133.22
2023-09-06T23:03:50.535Z,101138.50
2023-09-06T23:06:19.311Z,101140.69
2023-09-06T23:08:47.460Z,101144.97
2023-09-06T23:11:16.904Z,101142.38
2023-09-06T23:13:45.370Z,101105.72
2023-09-06T23:16:17.152Z,101103.41
2023-09-06T23:18:48.334Z,101043.94
2023-09-06T23:21:21.131Z,101141.16
2023-09-06T23:23:49.987Z,101147.59
2023-09-06T23:26:21.360Z,101140.16
2023-09-06T23:28:49.715Z,101132.41
2023-09-06T23:31:20.783Z,101135.97
2023-09-06T23:33:55.286Z,101139.19
2023-09-06T23:36:24.875Z,101075.22
2023-09-06T23:38:54.478Z,101082.72
2023-09-06T23:41:24.290Z,101125.84
2023-09-06T23:43:52.745Z,101126.38
2023-09-06T23:46:22.212Z,101061.47
2023-09-06T23:48:51.449Z,101125.84
2023-09-06T23:51:19.288Z,100881.06
2023-09-06T23:53:48.343Z,101120.13
2023-09-06T23:56:18.133Z,101125.56
2023-09-06T23:58:46.077Z,101122.63
